Time;durP1;ratioP1;P1;durP2;ratioP2;P2;SDS_P1;SDS_P2;PMS_P1;PMS_P2;Temp;Humidity;BMP_temperature;BMP_pressure;BME280_temperature;BME280_humidity;BME280_pressure;Samples;Min_cycle;Max_cycle;Signal;HPM_P1;HPM_P2
2023/03/10 00:02:06;;;;;;;3.17;0.90;;;;;;;16.27;53.67;94806.16;10300981;28;20030;-29
2023/03/10 00:07:06;;;;;;;2.87;0.87;;;;;;;16.25;52.81;94818.78;10303560;28;20023;-30
2023/03/10 00:12:09;;;;;;;1.43;0.90;;;;;;;16.27;51.57;94842.31;10303290;28;20038;-29
2023/03/10 00:17:10;;;;;;;4.03;1.50;;;;;;;16.29;53.41;94840.56;10297410;28;20118;-30
2023/03/10 00:22:10;;;;;;;2.43;1.00;;;;;;;16.30;53.78;94842.22;10293765;28;20116;-29
2023/03/10 00:27:10;;;;;;;1.70;1.00;;;;;;;16.30;53.82;94821.22;10298225;28;20670;-29
2023/03/10 00:32:11;;;;;;;1.37;0.70;;;;;;;16.28;53.23;94813.66;10274333;28;20042;-28
2023/03/10 00:37:11;;;;;;;4.73;0.90;;;;;;;16.28;53.60;94796.00;10294210;28;20051;-29
2023/03/10 00:42:11;;;;;;;4.43;1.10;;;;;;;16.26;53.52;94807.84;10288404;28;20058;-29
2023/03/10 00:47:12;;;;;;;3.10;1.23;;;;;;;16.27;52.75;94801.91;10298901;28;20030;-29
2023/03/10 00:52:12;;;;;;;4.10;1.73;;;;;;;16.26;54.29;94805.31;10290432;28;20118;-29
2023/03/10 00:57:13;;;;;;;3.07;0.80;;;;;;;16.26;52.46;94817.94;10292216;28;20421;-29
2023/03/10 01:02:13;;;;;;;5.53;1.05;;;;;;;16.31;58.89;94785.00;10293789;28;20043;-29
2023/03/10 01:07:13;;;;;;;3.07;1.00;;;;;;;16.34;58.81;94803.44;10311492;28;20034;-31
2023/03/10 01:12:14;;;;;;;4.90;0.87;;;;;;;16.36;57.93;94784.03;10314057;28;20113;-28
2023/03/10 01:17:14;;;;;;;2.40;0.80;;;;;;;16.28;55.07;94783.38;10294923;28;20294;-30
2023/03/10 01:22:17;;;;;;;4.67;1.50;;;;;;;16.28;53.63;94777.50;10304021;28;20298;-29
2023/03/10 01:27:17;;;;;;;2.17;0.73;;;;;;;16.25;52.88;94767.47;10286868;28;20653;-29
2023/03/10 01:32:18;;;;;;;3.43;1.30;;;;;;;16.26;52.73;94769.97;10288651;28;20034;-29
2023/03/10 01:37:20;;;;;;;2.53;0.77;;;;;;;16.25;52.28;94753.16;10306644;28;20810;-29
2023/03/10 01:42:20;;;;;;;3.28;1.25;;;;;;;16.25;52.48;94738.00;10304714;28;20118;-28
2023/03/10 01:47:20;;;;;;;1.23;0.70;;;;;;;16.25;51.95;94735.50;10288648;28;20039;-29
2023/03/10 01:52:25;;;;;;;1.95;0.68;;;;;;;16.25;52.03;94737.16;10277083;28;20337;-29
2023/03/10 01:57:32;;;;;;;2.47;0.85;;;;;;;16.24;51.90;94722.88;10295328;28;20031;-29
2023/03/10 02:02:36;;;;;;;1.42;0.85;;;;;;;16.23;51.61;94713.66;10271140;28;20050;-29
2023/03/10 02:07:37;;;;;;;2.75;0.80;;;;;;;16.24;52.05;94703.53;10286835;28;20066;-29
2023/03/10 02:12:37;;;;;;;2.80;1.00;;;;;;;16.20;51.81;94714.56;10302897;28;20077;-30
2023/03/10 02:17:39;;;;;;;1.53;0.63;;;;;;;16.24;52.09;94706.06;10289576;28;20515;-29
2023/03/10 02:22:40;;;;;;;2.70;0.95;;;;;;;16.30;58.43;94700.03;10303097;28;20088;-30
2023/03/10 02:27:42;;;;;;;6.38;1.08;;;;;;;16.34;58.96;94704.13;10277901;28;20034;-29
2023/03/10 02:32:50;;;;;;;3.53;1.45;;;;;;;16.30;56.79;94680.66;10280146;28;20037;-29
2023/03/10 02:37:51;;;;;;;1.20;0.70;;;;;;;16.28;54.11;94694.19;10303766;28;20066;-28
2023/03/10 02:42:51;;;;;;;1.75;1.05;;;;;;;16.26;52.92;94684.13;10312781;28;20058;-29
2023/03/10 02:47:52;;;;;;;1.67;1.00;;;;;;;16.23;52.69;94668.22;10298516;28;20027;-28
2023/03/10 02:53:00;;;;;;;1.98;0.77;;;;;;;16.24;52.33;94690.06;10278103;28;20031;-29
2023/03/10 02:58:01;;;;;;;1.85;0.60;;;;;;;16.23;52.17;94684.22;10292816;28;20038;-28
2023/03/10 03:03:02;;;;;;;2.75;1.00;;;;;;;16.23;52.58;94671.59;10285964;28;20034;-30
2023/03/10 03:08:05;;;;;;;3.10;0.70;;;;;;;16.23;51.75;94664.00;10302755;28;20057;-29
2023/03/10 03:13:06;;;;;;;2.67;0.60;;;;;;;16.23;51.98;94653.91;10310072;28;20026;-29
2023/03/10 03:18:07;;;;;;;1.38;0.65;;;;;;;16.22;51.70;94636.28;10299825;28;20027;-28
2023/03/10 03:23:09;;;;;;;1.58;0.70;;;;;;;16.22;51.80;94632.06;10281645;28;20041;-29
2023/03/10 03:28:11;;;;;;;1.88;0.80;;;;;;;16.21;51.91;94624.53;10287616;28;20122;-29
2023/03/10 03:33:12;;;;;;;1.85;0.50;;;;;;;16.23;52.07;94592.50;10280885;28;20498;-29
2023/03/10 03:38:15;;;;;;;3.22;1.10;;;;;;;16.28;56.08;94580.59;10286949;28;20030;-30
2023/03/10 03:43:15;;;;;;;3.13;1.08;;;;;;;16.32;58.63;94577.09;10309239;28;20042;-29
2023/03/10 03:48:17;;;;;;;5.15;1.08;;;;;;;16.34;58.23;94581.25;10277110;28;20058;-28
2023/03/10 03:53:18;;;;;;;1.27;0.52;;;;;;;16.30;54.47;94562.00;10293039;28;20031;-30
2023/03/10 03:58:19;;;;;;;1.85;0.80;;;;;;;16.26;53.63;94557.91;10275690;28;20043;-29
2023/03/10 04:03:20;;;;;;;2.85;1.08;;;;;;;16.26;53.29;94545.28;10277713;28;20450;-29
2023/03/10 04:08:21;;;;;;;1.27;0.50;;;;;;;16.25;52.65;94546.16;10275034;28;20059;-29
2023/03/10 04:13:24;;;;;;;1.70;0.50;;;;;;;16.24;52.67;94554.59;10282131;28;20039;-28
2023/03/10 04:18:25;;;;;;;1.52;0.85;;;;;;;16.26;52.85;94544.44;10278184;28;20061;-29
2023/03/10 04:23:25;;;;;;;1.23;0.70;;;;;;;16.25;52.07;94530.16;10275981;28;20061;-29
2023/03/10 04:28:26;;;;;;;1.23;0.50;;;;;;;16.24;51.78;94528.50;10281839;28;20027;-30
2023/03/10 04:33:28;;;;;;;1.88;0.60;;;;;;;16.24;51.83;94518.41;10275237;28;20030;-29
2023/03/10 04:38:31;;;;;;;1.10;0.60;;;;;;;16.19;51.97;94500.88;10286693;28;20499;-30
2023/03/10 04:43:31;;;;;;;1.50;0.43;;;;;;;16.23;51.58;94502.47;10281563;28;20098;-29
2023/03/10 04:48:33;;;;;;;2.70;0.75;;;;;;;16.24;51.55;94506.63;10284694;28;20572;-29
2023/03/10 04:53:35;;;;;;;2.15;0.95;;;;;;;16.27;51.83;94493.09;10292695;28;20415;-30
2023/03/10 04:58:36;;;;;;;6.22;0.90;;;;;;;16.31;56.48;94510.66;10298398;28;20487;-30
2023/03/10 05:03:37;;;;;;;2.25;0.88;;;;;;;16.35;57.14;94499.59;10278669;28;20037;-29
2023/03/10 05:08:39;;;;;;;1.90;0.82;;;;;;;16.37;56.51;94480.19;10287947;28;20448;-29
2023/03/10 05:13:40;;;;;;;1.60;0.80;;;;;;;16.36;55.60;94478.53;10286505;28;20034;-29
2023/03/10 05:18:41;;;;;;;3.78;1.38;;;;;;;16.36;53.76;94462.56;10279763;28;20123;-28
2023/03/10 05:23:42;;;;;;;4.65;0.90;;;;;;;16.40;55.93;94464.16;10287537;28;20494;-29
2023/03/10 05:28:43;;;;;;;3.92;0.70;;;;;;;16.41;55.92;94454.00;10279795;28;20407;-29
2023/03/10 05:33:44;;;;;;;2.83;1.20;;;;;;;16.39;55.94;94460.81;10277197;28;20455;-28
2023/03/10 05:38:47;;;;;;;3.05;0.75;;;;;;;16.39;55.62;94450.72;10294548;28;20551;-29
2023/03/10 05:43:49;;;;;;;3.85;0.88;;;;;;;16.40;52.96;94454.88;10272896;28;20124;-29
2023/03/10 05:48:53;;;;;;;2.78;0.88;;;;;;;16.41;55.52;94435.50;10271328;28;20488;-29
2023/03/10 05:53:54;;;;;;;2.70;0.70;;;;;;;16.41;51.87;94438.88;10274788;28;20037;-28
2023/03/10 05:58:59;;;;;;;1.50;0.75;;;;;;;16.38;51.69;94411.16;10295075;28;20442;-29
2023/03/10 06:04:05;;;;;;;1.33;0.57;;;;;;;16.44;52.09;94412.72;10276450;28;20026;-29
2023/03/10 06:09:06;;;;;;;1.25;0.50;;;;;;;16.41;51.47;94401.00;10293164;28;20023;-29
2023/03/10 06:14:06;;;;;;;2.20;0.93;;;;;;;16.40;54.65;94393.44;10286900;28;20147;-29
2023/03/10 06:19:06;;;;;;;3.93;0.93;;;;;;;16.47;56.73;94394.94;10288782;28;20085;-29
2023/03/10 06:24:07;;;;;;;5.70;1.27;;;;;;;16.49;56.35;94414.22;10288182;28;20031;-29
2023/03/10 06:29:08;;;;;;;6.90;0.90;;;;;;;16.45;52.13;94412.66;10288224;28;20539;-29
2023/03/10 06:34:08;;;;;;;10.65;1.02;;;;;;;16.29;51.68;94391.19;10291354;28;20043;-29
2023/03/10 06:39:09;;;;;;;5.60;0.67;;;;;;;16.34;50.48;94389.38;10288582;28;20054;-29
2023/03/10 06:44:17;;;;;;;5.97;1.67;;;;;;;16.36;50.86;94402.78;10287524;28;20289;-29
2023/03/10 06:49:17;;;;;;;6.43;1.45;;;;;;;16.34;51.56;94439.88;10293600;28;20812;-29
2023/03/10 06:54:18;;;;;;;34.07;3.87;;;;;;;16.37;51.01;94456.66;10293494;28;20096;-28
2023/03/10 06:59:18;;;;;;;18.33;2.50;;;;;;;16.34;50.54;94439.03;10287094;28;20042;-29
2023/03/10 07:04:18;;;;;;;20.83;2.43;;;;;;;16.33;50.42;94453.38;10287383;28;20038;-29
2023/03/10 07:09:19;;;;;;;14.77;1.83;;;;;;;16.34;50.17;94464.28;10288151;28;20038;-29
2023/03/10 07:14:19;;;;;;;11.17;2.10;;;;;;;16.33;49.87;94478.63;10286306;28;20042;-29
2023/03/10 07:19:19;;;;;;;9.50;1.90;;;;;;;16.28;50.16;94505.66;10289444;28;20560;-29
2023/03/10 07:24:20;;;;;;;7.25;1.58;;;;;;;16.34;49.70;94510.56;10291453;28;20301;-28
2023/03/10 07:29:23;;;;;;;5.75;1.92;;;;;;;16.36;50.24;94503.75;10300247;28;20039;-28
2023/03/10 07:34:23;;;;;;;6.97;1.80;;;;;;;16.44;57.23;94522.09;10301801;28;20061;-29
2023/03/10 07:39:24;;;;;;;4.50;1.30;;;;;;;16.50;56.64;94519.41;10306740;28;20058;-30
2023/03/10 07:44:24;;;;;;;6.13;1.27;;;;;;;16.49;54.14;94535.44;10293856;28;20035;-29
2023/03/10 07:49:25;;;;;;;4.75;1.17;;;;;;;16.45;50.70;94543.13;10294168;28;20758;-29
2023/03/10 07:54:25;;;;;;;6.97;1.33;;;;;;;16.38;50.69;94546.69;10297096;28;20032;-28
2023/03/10 07:59:25;;;;;;;10.83;3.10;;;;;;;16.41;50.97;94547.44;10294077;28;20794;-29
2023/03/10 08:04:26;;;;;;;6.37;2.00;;;;;;;16.39;50.51;94553.41;10310524;28;20505;-30
2023/03/10 08:09:28;;;;;;;6.37;1.40;;;;;;;16.37;50.17;94562.72;10300078;28;20058;-29
2023/03/10 08:14:30;;;;;;;5.63;1.75;;;;;;;16.36;49.86;94554.25;10291764;28;20475;-29
2023/03/10 08:19:30;;;;;;;8.57;1.83;;;;;;;16.38;49.90;94550.03;10318121;28;20061;-29
2023/03/10 08:24:30;;;;;;;11.93;4.37;;;;;;;16.39;49.92;94569.38;10308282;28;20114;-29
2023/03/10 08:29:31;;;;;;;8.48;3.75;;;;;;;16.44;50.41;94572.59;10302171;28;20038;-29
2023/03/10 08:34:33;;;;;;;13.50;2.83;;;;;;;16.46;53.54;94586.00;10298202;28;20030;-29
2023/03/10 08:39:33;;;;;;;5.50;2.40;;;;;;;16.48;53.36;94586.81;10322376;28;20031;-29
2023/03/10 08:44:34;;;;;;;8.27;2.30;;;;;;;16.49;52.71;94596.06;10316578;28;20038;-29
2023/03/10 08:49:34;;;;;;;10.40;3.20;;;;;;;16.52;53.47;94593.44;10302819;28;20029;-29
2023/03/10 08:54:35;;;;;;;8.52;1.75;;;;;;;16.58;58.01;94595.81;10301905;28;20046;-29
2023/03/10 08:59:35;;;;;;;6.25;1.77;;;;;;;16.61;58.19;94610.88;10313032;28;20035;-29
2023/03/10 09:04:35;;;;;;;7.67;1.70;;;;;;;16.61;54.85;94608.34;10316685;28;20039;-29
2023/03/10 09:09:36;;;;;;;7.30;2.10;;;;;;;16.70;55.23;94610.63;10303510;28;20290;-29
2023/03/10 09:14:37;;;;;;;9.03;1.80;;;;;;;16.80;54.92;94604.44;10305183;28;20039;-30
2023/03/10 09:19:37;;;;;;;6.68;1.63;;;;;;;16.86;54.88;94616.94;10298517;28;20123;-28
2023/03/10 09:24:37;;;;;;;9.20;1.53;;;;;;;16.96;54.63;94613.28;10314948;28;20035;-30
2023/03/10 09:29:38;;;;;;;8.25;1.77;;;;;;;16.98;54.62;94606.50;10301454;28;20353;-29
2023/03/10 09:34:38;;;;;;;6.70;1.40;;;;;;;17.02;55.18;94613.13;10306045;28;20492;-28
2023/03/10 09:39:39;;;;;;;8.67;1.50;;;;;;;17.10;55.29;94608.66;10309161;28;20031;-29
2023/03/10 09:44:54;;;;;;;4.20;1.02;;;;;;;17.16;55.31;94603.44;10298563;28;20046;-29
2023/03/10 09:50:18;;;;;;;7.30;1.52;;;;;;;17.22;55.11;94613.38;10296468;28;20031;-29
2023/03/10 09:55:26;;;;;;;11.55;1.70;;;;;;;17.22;55.40;94600.72;10307298;28;20462;-29
2023/03/10 10:00:38;;;;;;;21.27;2.15;;;;;;;17.20;55.98;94607.53;10322599;28;20440;-28
2023/03/10 10:05:41;;;;;;;12.25;2.00;;;;;;;17.15;55.63;94586.63;10320947;28;20062;-29
2023/03/10 10:10:42;;;;;;;15.15;2.80;;;;;;;17.29;55.71;94622.44;10308256;28;20042;-32
2023/03/10 10:15:46;;;;;;;8.95;2.50;;;;;;;17.40;55.41;94640.72;10299061;28;20039;-29
2023/03/10 10:20:57;;;;;;;14.27;1.80;;;;;;;17.13;54.80;94636.38;10298708;28;20045;-29
2023/03/10 10:26:09;;;;;;;6.15;2.40;;;;;;;17.02;55.24;94638.38;10306297;28;20041;-30
2023/03/10 10:31:12;;;;;;;9.10;1.77;;;;;;;16.95;55.63;94654.59;10307714;28;20510;-29
2023/03/10 10:36:16;;;;;;;8.70;1.40;;;;;;;16.82;55.79;94670.97;10307294;28;20046;-29
2023/03/10 10:41:30;;;;;;;11.10;1.95;;;;;;;16.78;55.75;94669.38;10302988;28;20458;-30
2023/03/10 10:46:31;;;;;;;7.35;1.45;;;;;;;16.70;56.18;94670.44;10321041;28;20109;-29
2023/03/10 10:51:36;;;;;;;11.13;1.88;;;;;;;16.72;56.17;94673.75;10306449;28;20489;-28
2023/03/10 10:56:36;;;;;;;7.63;2.28;;;;;;;16.72;55.79;94672.06;10310892;28;20459;-29
2023/03/10 11:02:00;;;;;;;6.17;1.30;;;;;;;16.71;56.22;94683.00;10317091;28;20038;-29
2023/03/10 11:07:28;;;;;;;8.38;2.15;;;;;;;16.71;56.09;94688.06;10311774;28;20293;-29
2023/03/10 11:13:00;;;;;;;5.57;2.13;;;;;;;16.72;56.32;94702.38;10312394;28;20129;-29
2023/03/10 11:18:19;;;;;;;8.80;1.60;;;;;;;16.70;55.92;94701.56;10284405;28;20112;-29
2023/03/10 11:23:40;;;;;;;8.10;2.03;;;;;;;16.68;55.80;94693.22;10300556;28;20034;-29
2023/03/10 11:29:03;;;;;;;8.63;1.80;;;;;;;16.68;56.32;94708.38;10317491;28;20135;-29
2023/03/10 11:34:07;;;;;;;5.25;2.28;;;;;;;16.68;55.82;94718.47;10318422;28;20089;-30
2023/03/10 11:39:21;;;;;;;8.13;2.20;;;;;;;16.62;56.47;94726.19;10321327;28;20466;-29
2023/03/10 11:44:29;;;;;;;2.45;1.38;;;;;;;16.60;56.88;94739.75;10326393;28;20035;-29
2023/03/10 11:49:35;;;;;;;7.30;2.63;;;;;;;16.54;57.35;94735.66;10313445;28;20034;-29
2023/03/10 11:54:43;;;;;;;6.30;3.10;;;;;;;16.53;57.03;94723.88;10322067;28;20038;-29
2023/03/10 12:00:06;;;;;;;5.90;2.50;;;;;;;16.57;56.84;94714.53;10327135;28;20039;-29
2023/03/10 12:05:21;;;;;;;5.18;2.50;;;;;;;16.59;56.29;94722.91;10313720;28;20062;-29
2023/03/10 12:10:21;;;;;;;8.25;2.53;;;;;;;16.59;56.01;94733.00;10332302;28;20034;-29
2023/03/10 12:15:29;;;;;;;4.68;2.88;;;;;;;16.58;56.00;94716.19;10332753;28;20047;-29
2023/03/10 12:20:31;;;;;;;5.60;2.40;;;;;;;16.55;55.91;94717.09;10315288;28;20039;-29
2023/03/10 12:25:34;;;;;;;5.18;2.53;;;;;;;16.57;55.64;94725.50;10308250;28;20475;-29
2023/03/10 12:30:46;;;;;;;7.57;2.55;;;;;;;16.58;56.07;94711.16;10332650;28;20053;-32
2023/03/10 12:35:50;;;;;;;6.90;3.08;;;;;;;16.54;56.18;94729.78;10296290;28;20074;-32
2023/03/10 12:40:51;;;;;;;6.45;2.65;;;;;;;16.56;56.40;94728.03;10309363;28;20430;-31
2023/03/10 12:45:52;;;;;;;10.73;3.60;;;;;;;16.58;56.96;94737.25;10330949;28;20030;-33
2023/03/10 12:51:03;;;;;;;46.00;4.63;;;;;;;16.69;55.88;94715.06;10304671;28;20104;-31
2023/03/10 12:56:17;;;;;;;21.80;5.35;;;;;;;16.72;55.77;94732.69;10310629;28;20030;-31
2023/03/10 13:01:21;;;;;;;17.58;3.50;;;;;;;16.75;56.40;94741.00;10331735;28;20042;-31
2023/03/10 13:06:39;;;;;;;16.15;3.75;;;;;;;16.81;57.20;94735.00;10330501;28;20050;-31
2023/03/10 13:12:06;;;;;;;11.80;4.72;;;;;;;16.91;57.16;94761.69;10330073;28;20034;-30
2023/03/10 13:17:23;;;;;;;7.90;3.60;;;;;;;17.01;56.62;94747.94;10328709;28;20034;-31
2023/03/10 13:22:24;;;;;;;11.30;3.83;;;;;;;17.04;56.44;94771.44;10330430;28;20526;-31
2023/03/10 13:27:29;;;;;;;12.98;3.58;;;;;;;17.08;56.61;94783.13;10328584;28;20088;-32
2023/03/10 13:32:33;;;;;;;8.90;3.33;;;;;;;17.13;56.16;94771.22;10330224;28;20487;-32
2023/03/10 13:37:34;;;;;;;16.58;3.58;;;;;;;17.22;56.12;94795.41;10329286;28;20117;-31
2023/03/10 13:42:34;;;;;;;7.23;3.40;;;;;;;17.26;55.82;94819.78;10328857;28;20039;-33
2023/03/10 13:47:42;;;;;;;7.97;2.97;;;;;;;17.27;55.92;94801.19;10329208;28;20026;-32
2023/03/10 13:52:58;;;;;;;12.35;5.28;;;;;;;17.31;55.69;94830.63;10329483;28;20060;-31
2023/03/10 13:57:58;;;;;;;7.25;2.92;;;;;;;17.43;55.74;94832.84;10328036;28;20278;-32
2023/03/10 14:02:59;;;;;;;9.45;3.00;;;;;;;17.46;55.72;94847.94;10299470;28;20494;-31
2023/03/10 14:08:00;;;;;;;8.18;2.53;;;;;;;17.49;55.40;94868.13;10324709;28;20113;-32
2023/03/10 14:13:00;;;;;;;9.20;2.88;;;;;;;17.45;55.20;94879.16;10327436;28;20034;-31
2023/03/10 14:18:07;;;;;;;5.47;2.50;;;;;;;17.49;55.14;94918.72;10326631;28;20046;-32
2023/03/10 14:23:24;;;;;;;5.57;2.80;;;;;;;17.48;54.94;94906.94;10289454;28;20297;-32
2023/03/10 14:28:31;;;;;;;4.78;2.70;;;;;;;17.33;54.89;94945.22;10288725;28;20483;-32
2023/03/10 14:33:31;;;;;;;7.50;2.22;;;;;;;17.23;55.42;94949.63;10288829;28;20411;-31
2023/03/10 14:38:31;;;;;;;3.65;1.92;;;;;;;17.17;55.32;94926.19;10321153;28;20046;-32
2023/03/10 14:43:32;;;;;;;7.97;2.43;;;;;;;17.13;54.88;94919.53;10290879;28;20704;-31
2023/03/10 14:48:34;;;;;;;4.63;2.10;;;;;;;17.14;55.15;94941.47;10288340;28;20042;-32
2023/03/10 14:53:35;;;;;;;17.73;3.05;;;;;;;17.15;56.07;94963.34;10289938;28;20042;-31
2023/03/10 14:58:53;;;;;;;7.65;2.30;;;;;;;16.97;55.94;94983.94;10286262;28;20039;-31
2023/03/10 15:03:53;;;;;;;7.55;2.33;;;;;;;16.90;56.53;94997.59;10289817;28;20098;-32
2023/03/10 15:08:54;;;;;;;8.43;2.80;;;;;;;16.92;56.56;94991.63;10287470;28;20043;-31
2023/03/10 15:13:54;;;;;;;10.87;2.43;;;;;;;17.02;56.72;94984.69;10286712;28;20634;-31
2023/03/10 15:18:54;;;;;;;5.80;2.83;;;;;;;16.95;56.27;94960.41;10294301;28;20302;-31
2023/03/10 15:23:55;;;;;;;6.13;2.30;;;;;;;16.89;56.83;94999.28;10289244;28;20165;-32
2023/03/10 15:28:55;;;;;;;4.22;2.22;;;;;;;16.82;56.69;94999.47;10288626;28;20027;-32
2023/03/10 15:33:56;;;;;;;7.07;1.90;;;;;;;16.77;56.96;94985.25;10289967;28;20038;-32
2023/03/10 15:38:56;;;;;;;7.97;2.03;;;;;;;16.72;56.94;95018.22;10286526;28;20034;-32
2023/03/10 15:43:56;;;;;;;7.30;2.20;;;;;;;16.65;56.82;95036.88;10284034;28;20089;-31
2023/03/10 15:48:57;;;;;;;4.40;1.77;;;;;;;16.70;56.66;95067.91;10286957;28;20042;-32
2023/03/10 15:53:57;;;;;;;5.88;2.03;;;;;;;16.68;56.20;95092.38;10297488;28;20184;-33
2023/03/10 15:58:58;;;;;;;5.47;1.95;;;;;;;16.68;56.08;95142.91;10289316;28;20487;-32
2023/03/10 16:04:00;;;;;;;7.10;2.00;;;;;;;16.64;55.52;95110.16;10294423;28;20525;-32
2023/03/10 16:09:01;;;;;;;6.50;1.83;;;;;;;16.77;54.74;95091.38;10301059;28;20396;-33
2023/03/10 16:14:02;;;;;;;5.68;1.80;;;;;;;16.85;54.07;95065.94;10298514;28;20030;-31
2023/03/10 16:19:02;;;;;;;5.05;1.67;;;;;;;16.91;53.56;95072.56;10302650;28;20057;-31
2023/03/10 16:24:03;;;;;;;5.97;2.03;;;;;;;16.90;53.97;95084.34;10310440;28;20509;-32
2023/03/10 16:29:03;;;;;;;6.65;1.60;;;;;;;16.94;55.68;95095.25;10303124;28;20286;-31
2023/03/10 16:34:04;;;;;;;8.60;1.83;;;;;;;16.94;55.27;95112.94;10278955;28;20038;-31
2023/03/10 16:39:09;;;;;;;6.43;2.15;;;;;;;16.91;53.17;95110.47;10295786;28;20034;-31
2023/03/10 16:44:12;;;;;;;3.03;1.52;;;;;;;16.92;53.67;95102.84;10290891;28;20053;-31
2023/03/10 16:49:13;;;;;;;5.78;1.35;;;;;;;16.91;53.05;95121.41;10293884;28;20081;-33
2023/03/10 16:54:17;;;;;;;6.03;2.45;;;;;;;16.91;53.42;95115.53;10291435;28;20058;-32
2023/03/10 16:59:25;;;;;;;5.28;1.52;;;;;;;16.90;52.88;95119.75;10297571;28;20043;-32
2023/03/10 17:04:26;;;;;;;4.30;1.60;;;;;;;16.84;53.17;95102.16;10288963;28;20031;-31
2023/03/10 17:09:27;;;;;;;8.50;2.42;;;;;;;16.90;53.38;95129.03;10290570;28;20023;-31
2023/03/10 17:14:28;;;;;;;3.08;1.40;;;;;;;16.93;51.94;95088.53;10290415;28;20039;-32
2023/03/10 17:19:28;;;;;;;3.83;1.20;;;;;;;16.96;52.05;95107.00;10298797;28;20039;-31
2023/03/10 17:24:30;;;;;;;3.25;1.15;;;;;;;16.98;50.97;95149.94;10309455;28;20470;-31
2023/03/10 17:29:30;;;;;;;2.37;1.20;;;;;;;16.97;51.57;95171.00;10308582;28;20072;-32
2023/03/10 17:34:31;;;;;;;4.97;1.52;;;;;;;16.94;51.65;95189.59;10311144;28;20798;-31
2023/03/10 17:39:31;;;;;;;7.27;1.83;;;;;;;16.90;54.36;95194.75;10297598;28;20126;-31
2023/03/10 17:44:31;;;;;;;11.23;2.67;;;;;;;16.78;51.20;95207.59;10297245;28;20126;-32
2023/03/10 17:49:32;;;;;;;5.33;1.50;;;;;;;16.91;51.72;95186.31;10292829;28;20039;-31
2023/03/10 17:54:33;;;;;;;8.82;2.08;;;;;;;16.90;52.71;95169.47;10306170;28;20053;-31
2023/03/10 17:59:37;;;;;;;7.45;1.80;;;;;;;16.89;53.59;95167.81;10294442;28;20046;-32
2023/03/10 18:04:43;;;;;;;8.65;1.40;;;;;;;16.89;52.51;95150.13;10298217;28;20038;-31
2023/03/10 18:09:44;;;;;;;5.67;1.47;;;;;;;16.92;53.64;95152.56;10318199;28;20037;-32
2023/03/10 18:14:44;;;;;;;11.57;1.73;;;;;;;16.92;54.11;95167.75;10326548;28;20038;-31
2023/03/10 18:19:44;;;;;;;7.83;1.33;;;;;;;16.95;51.68;95195.47;10294491;28;20045;-31
2023/03/10 18:24:45;;;;;;;8.47;1.20;;;;;;;17.01;51.57;95190.31;10300498;28;20023;-31
2023/03/10 18:29:45;;;;;;;10.23;1.50;;;;;;;16.98;53.09;95187.84;10305106;28;20349;-32
2023/03/10 18:34:46;;;;;;;3.13;1.40;;;;;;;17.02;51.32;95202.09;10330583;28;20303;-31
2023/03/10 18:39:46;;;;;;;7.20;1.57;;;;;;;16.93;51.08;95228.38;10309090;28;20039;-32
2023/03/10 18:44:46;;;;;;;7.43;2.05;;;;;;;16.97;53.00;95214.81;10287173;28;20793;-31
2023/03/10 18:49:47;;;;;;;8.20;2.00;;;;;;;16.97;52.68;95267.06;10295006;28;20030;-31
2023/03/10 18:54:47;;;;;;;7.20;1.88;;;;;;;17.00;53.53;95261.97;10292608;28;20038;-31
2023/03/10 18:59:48;;;;;;;6.13;1.63;;;;;;;17.03;54.32;95287.19;10287544;28;20070;-32
2023/03/10 19:04:49;;;;;;;3.10;1.30;;;;;;;17.01;52.09;95336.94;10297375;28;20033;-32
2023/03/10 19:09:53;;;;;;;2.75;1.08;;;;;;;16.96;51.85;95351.34;10324766;28;20030;-31
2023/03/10 19:14:54;;;;;;;4.10;1.45;;;;;;;16.95;52.62;95365.69;10327182;28;20092;-31
2023/03/10 19:19:55;;;;;;;2.35;1.10;;;;;;;16.96;52.64;95399.38;10325532;28;20035;-31
2023/03/10 19:24:57;;;;;;;7.45;2.20;;;;;;;16.95;53.18;95408.66;10329562;28;20026;-31
2023/03/10 19:29:58;;;;;;;3.63;1.27;;;;;;;16.92;51.91;95410.41;10326678;28;20109;-32
2023/03/10 19:34:58;;;;;;;4.03;1.17;;;;;;;16.94;51.92;95418.78;10325810;28;20030;-32
2023/03/10 19:39:59;;;;;;;3.07;1.20;;;;;;;16.93;52.01;95437.34;10316496;28;20034;-32
2023/03/10 19:45:00;;;;;;;2.90;1.10;;;;;;;16.92;52.05;95439.03;10327032;28;20395;-31
2023/03/10 19:50:00;;;;;;;3.97;1.10;;;;;;;16.94;51.67;95444.91;10315894;28;20042;-32
2023/03/10 19:55:01;;;;;;;1.73;1.13;;;;;;;16.97;51.96;95451.59;10302632;28;20425;-32
2023/03/10 20:00:04;;;;;;;2.70;0.93;;;;;;;16.99;51.26;95460.00;10301917;28;20031;-31
2023/03/10 20:05:08;;;;;;;3.47;1.25;;;;;;;17.02;52.39;95462.50;10300489;28;20026;-32
2023/03/10 20:10:10;;;;;;;2.67;1.10;;;;;;;16.97;54.34;95472.66;10303816;28;20046;-32
2023/03/10 20:15:10;;;;;;;4.35;1.40;;;;;;;17.01;53.46;95479.38;10326548;28;20137;-34
2023/03/10 20:20:13;;;;;;;2.73;0.90;;;;;;;16.99;52.45;95487.81;10326542;28;20034;-31
2023/03/10 20:25:16;;;;;;;2.13;1.25;;;;;;;16.96;52.90;95508.06;10335054;28;20034;-32
2023/03/10 20:30:21;;;;;;;2.13;1.25;;;;;;;16.97;51.55;95504.69;10329133;28;20042;-32
2023/03/10 20:35:22;;;;;;;1.63;0.88;;;;;;;17.00;51.66;95519.81;10325518;28;20045;-32
2023/03/10 20:40:23;;;;;;;3.85;1.15;;;;;;;17.01;51.93;95518.97;10321215;28;20064;-31
2023/03/10 20:45:23;;;;;;;1.50;0.68;;;;;;;17.00;51.56;95509.72;10327491;28;20113;-32
2023/03/10 20:50:24;;;;;;;2.78;1.40;;;;;;;17.02;51.38;95518.09;10324749;28;20042;-32
2023/03/10 20:55:27;;;;;;;3.05;1.20;;;;;;;17.01;51.40;95503.81;10327936;28;20038;-32
2023/03/10 21:00:28;;;;;;;5.18;1.20;;;;;;;17.00;51.57;95514.78;10330846;28;20659;-31
2023/03/10 21:05:29;;;;;;;5.28;1.42;;;;;;;16.98;53.38;95531.66;10327769;28;20083;-32
2023/03/10 21:10:29;;;;;;;3.85;0.82;;;;;;;16.98;52.44;95546.84;10338895;28;20046;-31
2023/03/10 21:15:30;;;;;;;3.95;1.10;;;;;;;16.96;52.24;95549.38;10336233;28;20043;-32
2023/03/10 21:20:30;;;;;;;2.00;0.93;;;;;;;17.03;53.81;95576.25;10328556;28;20036;-32
2023/03/10 21:25:30;;;;;;;2.37;1.20;;;;;;;17.03;52.99;95582.97;10318682;28;20491;-31
2023/03/10 21:30:32;;;;;;;1.97;1.30;;;;;;;17.04;53.45;95582.13;10326346;28;20521;-32
2023/03/10 21:35:35;;;;;;;2.65;1.00;;;;;;;16.97;53.88;95576.31;10331952;28;20305;-32
2023/03/10 21:40:35;;;;;;;5.22;1.65;;;;;;;16.95;53.82;95597.41;10347168;28;20030;-31
2023/03/10 21:45:37;;;;;;;4.80;1.00;;;;;;;16.94;54.63;95595.75;10338462;28;20034;-32
2023/03/10 21:50:37;;;;;;;3.47;1.40;;;;;;;16.92;54.28;95599.97;10323421;28;20272;-31
2023/03/10 21:55:37;;;;;;;4.33;1.17;;;;;;;16.92;53.81;95617.69;10323683;28;20043;-32
2023/03/10 22:00:38;;;;;;;4.33;1.20;;;;;;;16.90;54.03;95614.34;10331119;28;20069;-31
2023/03/10 22:05:38;;;;;;;3.45;1.10;;;;;;;16.89;54.12;95613.50;10334222;28;20035;-31
2023/03/10 22:10:39;;;;;;;1.50;0.90;;;;;;;16.89;53.71;95597.50;10316555;28;20096;-31
2023/03/10 22:15:39;;;;;;;5.33;1.30;;;;;;;16.88;54.55;95605.91;10338584;28;20792;-32
2023/03/10 22:20:40;;;;;;;2.40;1.57;;;;;;;16.88;54.52;95600.84;10324063;28;20335;-31
2023/03/10 22:25:40;;;;;;;1.83;0.80;;;;;;;16.88;54.21;95621.09;10322836;28;20304;-32
2023/03/10 22:30:41;;;;;;;2.42;0.85;;;;;;;16.93;52.63;95632.00;10324154;28;20312;-31
2023/03/10 22:35:50;;;;;;;3.10;0.88;;;;;;;16.99;52.58;95637.81;10323698;28;20050;-32
2023/03/10 22:40:51;;;;;;;1.48;0.77;;;;;;;17.01;53.09;95663.09;10323282;28;20035;-32
2023/03/10 22:45:55;;;;;;;1.90;0.63;;;;;;;16.94;53.94;95661.47;10323721;28;20027;-32
2023/03/10 22:50:55;;;;;;;2.53;0.88;;;;;;;16.90;54.41;95654.78;10318690;28;20030;-32
2023/03/10 22:55:56;;;;;;;3.33;0.90;;;;;;;16.88;54.00;95662.38;10323038;28;20045;-32
2023/03/10 23:00:56;;;;;;;1.73;0.77;;;;;;;16.94;52.09;95656.41;10336827;28;20451;-32
2023/03/10 23:05:57;;;;;;;1.87;1.10;;;;;;;16.93;54.04;95659.78;10336632;28;20042;-32
2023/03/10 23:10:57;;;;;;;1.60;0.85;;;;;;;16.91;53.19;95642.09;10340481;28;20053;-31
2023/03/10 23:15:58;;;;;;;1.90;1.23;;;;;;;16.91;54.76;95656.47;10338917;28;20026;-32
2023/03/10 23:20:59;;;;;;;4.07;0.90;;;;;;;16.88;55.23;95664.91;10331674;28;20502;-31
2023/03/10 23:26:00;;;;;;;2.67;0.88;;;;;;;16.82;55.78;95654.84;10331973;28;20050;-31